Corpus Christi Jet Center

SKYE FBO - AIRPORT SERVICES
McCampbell-Porter Airport KTFP
Call Us 24/7: (361) 758-2000
KTFP - McCampbell-Porter Airport
Updated: Mon, 20-Aug-2018 4:35pm PDT
Clear
Clear
 Wind from SSE
Wind: SSE 14 mph , 22 km/h, Gust: 18 mph , 30 km/h
Temperature: 90°F , 32°C
Heat Index: 101°F , 38°C
Dew Point: 75°F , 24°C
Humidity: 63%
Barometer: 29.95 inHg , 1014.2 hPa
Clouds: Clear
Visibility: 10 miles , 16 km
2018/08/20 23:35 KTFP 202335Z AUTO 16012G16KT 10SM CLR 32/24 A2995 RMK AO2 T03160240 PNO

Hours of Operation

8 am - 6 pm (7 days a week)
Terminal access 24/7
On call services 24/7 (fee may apply)
(361) 758-2000

Location

Skye FBO - Airport Services
McCampbell-Porter Airport KTFP
3141 FM 3512
Aransas Pass, TX 78336-9728
(361) 758-2000
2 miles N of Ingleside, TX
Only 15 min from downtown Corpus Christi 2 miles N of Ingleside, Texas and only 15 minutes from downtown Corpus Christi, Texas

(click to enlarge)

Skyview Aviation BBB Business Review

24 Hour / 365 Day Access

Call: (361) 758-2000


View Larger Map